sensor_id;sensor_type;location;lat;lon;timestamp;P1;durP1;ratioP1;P2;durP2;ratioP2
17955;SDS011;27666;51.498;11.966;2022-10-17T00:02:01;6.53;;;3.72;;
17955;SDS011;27666;51.498;11.966;2022-10-17T00:04:47;5.13;;;3.83;;
17955;SDS011;27666;51.498;11.966;2022-10-17T00:07:34;7.18;;;4.28;;
17955;SDS011;27666;51.498;11.966;2022-10-17T00:10:21;4.47;;;3.75;;
17955;SDS011;27666;51.498;11.966;2022-10-17T00:13:10;3.85;;;3.50;;
17955;SDS011;27666;51.498;11.966;2022-10-17T00:15:56;5.18;;;3.58;;
17955;SDS011;27666;51.498;11.966;2022-10-17T00:18:43;4.68;;;3.50;;
17955;SDS011;27666;51.498;11.966;2022-10-17T00:21:29;4.55;;;3.50;;
17955;SDS011;27666;51.498;11.966;2022-10-17T00:24:16;4.75;;;3.45;;
17955;SDS011;27666;51.498;11.966;2022-10-17T00:27:03;4.85;;;4.22;;
17955;SDS011;27666;51.498;11.966;2022-10-17T00:29:50;4.47;;;3.90;;
17955;SDS011;27666;51.498;11.966;2022-10-17T00:32:37;6.97;;;4.03;;
17955;SDS011;27666;51.498;11.966;2022-10-17T00:35:23;4.13;;;3.70;;
17955;SDS011;27666;51.498;11.966;2022-10-17T00:38:10;4.40;;;3.78;;
17955;SDS011;27666;51.498;11.966;2022-10-17T00:40:56;4.32;;;3.70;;
17955;SDS011;27666;51.498;11.966;2022-10-17T00:43:52;4.15;;;3.53;;
17955;SDS011;27666;51.498;11.966;2022-10-17T00:46:43;3.95;;;3.58;;
17955;SDS011;27666;51.498;11.966;2022-10-17T00:49:30;4.85;;;3.83;;
17955;SDS011;27666;51.498;11.966;2022-10-17T00:52:20;6.28;;;4.18;;
17955;SDS011;27666;51.498;11.966;2022-10-17T00:55:10;4.53;;;3.58;;
17955;SDS011;27666;51.498;11.966;2022-10-17T00:57:59;5.05;;;3.83;;
17955;SDS011;27666;51.498;11.966;2022-10-17T01:00:48;4.55;;;4.05;;
17955;SDS011;27666;51.498;11.966;2022-10-17T01:03:36;7.25;;;4.65;;
17955;SDS011;27666;51.498;11.966;2022-10-17T01:06:22;7.88;;;5.13;;
17955;SDS011;27666;51.498;11.966;2022-10-17T01:09:09;5.35;;;4.85;;
17955;SDS011;27666;51.498;11.966;2022-10-17T01:11:57;6.97;;;4.78;;
17955;SDS011;27666;51.498;11.966;2022-10-17T01:14:53;7.38;;;5.15;;
17955;SDS011;27666;51.498;11.966;2022-10-17T01:17:52;10.02;;;4.65;;
17955;SDS011;27666;51.498;11.966;2022-10-17T01:21:00;7.13;;;4.90;;
17955;SDS011;27666;51.498;11.966;2022-10-17T01:27:48;7.15;;;4.53;;
17955;SDS011;27666;51.498;11.966;2022-10-17T01:30:54;6.05;;;4.63;;
17955;SDS011;27666;51.498;11.966;2022-10-17T01:33:45;5.30;;;4.47;;
17955;SDS011;27666;51.498;11.966;2022-10-17T01:36:39;9.52;;;4.85;;
17955;SDS011;27666;51.498;11.966;2022-10-17T01:39:35;7.30;;;4.50;;
17955;SDS011;27666;51.498;11.966;2022-10-17T01:42:32;6.60;;;4.55;;
17955;SDS011;27666;51.498;11.966;2022-10-17T01:45:24;6.35;;;4.50;;
17955;SDS011;27666;51.498;11.966;2022-10-17T01:48:16;8.88;;;4.65;;
17955;SDS011;27666;51.498;11.966;2022-10-17T01:51:06;5.95;;;4.32;;
17955;SDS011;27666;51.498;11.966;2022-10-17T01:53:56;6.18;;;4.50;;
17955;SDS011;27666;51.498;11.966;2022-10-17T01:56:46;4.80;;;4.28;;
17955;SDS011;27666;51.498;11.966;2022-10-17T01:59:37;5.40;;;4.18;;
17955;SDS011;27666;51.498;11.966;2022-10-17T02:02:26;5.10;;;4.20;;
17955;SDS011;27666;51.498;11.966;2022-10-17T02:05:16;5.90;;;4.65;;
17955;SDS011;27666;51.498;11.966;2022-10-17T02:08:04;6.50;;;4.38;;
17955;SDS011;27666;51.498;11.966;2022-10-17T02:10:51;5.40;;;4.03;;
17955;SDS011;27666;51.498;11.966;2022-10-17T02:16:53;6.13;;;3.78;;
17955;SDS011;27666;51.498;11.966;2022-10-17T02:19:49;5.00;;;3.72;;
17955;SDS011;27666;51.498;11.966;2022-10-17T02:22:46;7.43;;;4.00;;
17955;SDS011;27666;51.498;11.966;2022-10-17T02:25:37;4.57;;;4.03;;
17955;SDS011;27666;51.498;11.966;2022-10-17T02:28:29;5.40;;;4.10;;
17955;SDS011;27666;51.498;11.966;2022-10-17T02:31:23;4.85;;;4.05;;
17955;SDS011;27666;51.498;11.966;2022-10-17T02:34:15;4.97;;;3.97;;
17955;SDS011;27666;51.498;11.966;2022-10-17T02:37:04;4.32;;;3.90;;
17955;SDS011;27666;51.498;11.966;2022-10-17T02:39:55;6.25;;;3.80;;
17955;SDS011;27666;51.498;11.966;2022-10-17T02:42:44;4.22;;;3.80;;
17955;SDS011;27666;51.498;11.966;2022-10-17T02:45:31;5.80;;;3.75;;
17955;SDS011;27666;51.498;11.966;2022-10-17T02:48:21;9.23;;;4.10;;
17955;SDS011;27666;51.498;11.966;2022-10-17T02:51:14;4.60;;;3.83;;
17955;SDS011;27666;51.498;11.966;2022-10-17T02:54:09;9.00;;;3.90;;
17955;SDS011;27666;51.498;11.966;2022-10-17T02:57:01;7.70;;;4.40;;
17955;SDS011;27666;51.498;11.966;2022-10-17T02:59:55;5.15;;;3.72;;
17955;SDS011;27666;51.498;11.966;2022-10-17T03:02:44;4.25;;;3.85;;
17955;SDS011;27666;51.498;11.966;2022-10-17T03:05:32;5.45;;;3.72;;
17955;SDS011;27666;51.498;11.966;2022-10-17T03:08:18;4.97;;;3.65;;
17955;SDS011;27666;51.498;11.966;2022-10-17T03:11:05;4.63;;;3.90;;
17955;SDS011;27666;51.498;11.966;2022-10-17T03:13:53;3.97;;;3.42;;
17955;SDS011;27666;51.498;11.966;2022-10-17T03:16:40;8.13;;;3.90;;
17955;SDS011;27666;51.498;11.966;2022-10-17T03:19:26;5.55;;;3.72;;
17955;SDS011;27666;51.498;11.966;2022-10-17T03:22:12;4.68;;;3.58;;
17955;SDS011;27666;51.498;11.966;2022-10-17T03:24:59;4.65;;;3.85;;
17955;SDS011;27666;51.498;11.966;2022-10-17T03:27:45;7.28;;;3.80;;
17955;SDS011;27666;51.498;11.966;2022-10-17T03:30:33;5.72;;;3.70;;
17955;SDS011;27666;51.498;11.966;2022-10-17T03:33:19;5.72;;;4.20;;
17955;SDS011;27666;51.498;11.966;2022-10-17T03:36:06;4.35;;;3.95;;
17955;SDS011;27666;51.498;11.966;2022-10-17T03:38:53;4.25;;;3.85;;
17955;SDS011;27666;51.498;11.966;2022-10-17T03:41:40;4.32;;;3.88;;
17955;SDS011;27666;51.498;11.966;2022-10-17T03:44:26;4.43;;;4.03;;
17955;SDS011;27666;51.498;11.966;2022-10-17T03:47:14;5.80;;;4.00;;
17955;SDS011;27666;51.498;11.966;2022-10-17T03:50:01;6.80;;;4.78;;
17955;SDS011;27666;51.498;11.966;2022-10-17T03:52:48;5.25;;;4.38;;
17955;SDS011;27666;51.498;11.966;2022-10-17T03:55:34;6.40;;;4.40;;
17955;SDS011;27666;51.498;11.966;2022-10-17T03:58:20;6.65;;;4.30;;
17955;SDS011;27666;51.498;11.966;2022-10-17T04:01:07;8.68;;;4.63;;
17955;SDS011;27666;51.498;11.966;2022-10-17T04:03:57;6.32;;;3.72;;
17955;SDS011;27666;51.498;11.966;2022-10-17T04:06:43;5.68;;;4.07;;
17955;SDS011;27666;51.498;11.966;2022-10-17T04:09:29;6.10;;;4.00;;
17955;SDS011;27666;51.498;11.966;2022-10-17T04:12:16;5.97;;;4.05;;
17955;SDS011;27666;51.498;11.966;2022-10-17T04:15:02;6.75;;;4.18;;
17955;SDS011;27666;51.498;11.966;2022-10-17T04:17:49;7.47;;;4.97;;
17955;SDS011;27666;51.498;11.966;2022-10-17T04:20:37;7.45;;;5.57;;
17955;SDS011;27666;51.498;11.966;2022-10-17T04:23:23;7.13;;;5.72;;
17955;SDS011;27666;51.498;11.966;2022-10-17T04:26:11;8.73;;;4.50;;
17955;SDS011;27666;51.498;11.966;2022-10-17T04:28:57;5.68;;;4.18;;
17955;SDS011;27666;51.498;11.966;2022-10-17T04:31:43;5.85;;;3.90;;
17955;SDS011;27666;51.498;11.966;2022-10-17T04:34:30;8.93;;;3.63;;
17955;SDS011;27666;51.498;11.966;2022-10-17T04:37:18;6.50;;;3.78;;
17955;SDS011;27666;51.498;11.966;2022-10-17T04:40:04;5.38;;;4.22;;
17955;SDS011;27666;51.498;11.966;2022-10-17T04:42:51;7.57;;;4.45;;
17955;SDS011;27666;51.498;11.966;2022-10-17T04:45:38;11.65;;;5.63;;
17955;SDS011;27666;51.498;11.966;2022-10-17T04:48:24;4.75;;;4.00;;
17955;SDS011;27666;51.498;11.966;2022-10-17T04:51:12;9.50;;;4.00;;
17955;SDS011;27666;51.498;11.966;2022-10-17T04:54:01;5.55;;;4.20;;
17955;SDS011;27666;51.498;11.966;2022-10-17T04:56:47;7.70;;;4.18;;
17955;SDS011;27666;51.498;11.966;2022-10-17T04:59:33;6.43;;;4.20;;
17955;SDS011;27666;51.498;11.966;2022-10-17T05:02:20;5.13;;;4.18;;
17955;SDS011;27666;51.498;11.966;2022-10-17T05:05:07;4.60;;;4.07;;
17955;SDS011;27666;51.498;11.966;2022-10-17T05:07:53;5.60;;;4.50;;
17955;SDS011;27666;51.498;11.966;2022-10-17T05:10:42;21.20;;;13.23;;
17955;SDS011;27666;51.498;11.966;2022-10-17T05:13:30;10.73;;;7.03;;
17955;SDS011;27666;51.498;11.966;2022-10-17T05:16:17;7.72;;;4.55;;
17955;SDS011;27666;51.498;11.966;2022-10-17T05:19:03;6.60;;;4.60;;
17955;SDS011;27666;51.498;11.966;2022-10-17T05:21:50;8.30;;;4.85;;
17955;SDS011;27666;51.498;11.966;2022-10-17T05:24:36;5.78;;;4.18;;
17955;SDS011;27666;51.498;11.966;2022-10-17T05:27:24;6.90;;;4.15;;
17955;SDS011;27666;51.498;11.966;2022-10-17T05:30:11;11.95;;;4.55;;
17955;SDS011;27666;51.498;11.966;2022-10-17T05:32:57;6.45;;;4.70;;
17955;SDS011;27666;51.498;11.966;2022-10-17T05:35:43;9.38;;;5.40;;
17955;SDS011;27666;51.498;11.966;2022-10-17T05:38:30;12.18;;;6.88;;
17955;SDS011;27666;51.498;11.966;2022-10-17T05:41:17;17.15;;;7.55;;
17955;SDS011;27666;51.498;11.966;2022-10-17T05:44:05;19.92;;;7.88;;
17955;SDS011;27666;51.498;11.966;2022-10-17T05:46:51;11.45;;;7.18;;
17955;SDS011;27666;51.498;11.966;2022-10-17T05:49:38;17.58;;;7.78;;
17955;SDS011;27666;51.498;11.966;2022-10-17T05:52:35;12.00;;;6.68;;
17955;SDS011;27666;51.498;11.966;2022-10-17T05:55:21;14.70;;;7.07;;
17955;SDS011;27666;51.498;11.966;2022-10-17T05:58:08;10.73;;;6.80;;
17955;SDS011;27666;51.498;11.966;2022-10-17T06:01:08;10.45;;;5.65;;
17955;SDS011;27666;51.498;11.966;2022-10-17T06:03:56;6.40;;;5.43;;
17955;SDS011;27666;51.498;11.966;2022-10-17T06:06:43;7.55;;;5.25;;
17955;SDS011;27666;51.498;11.966;2022-10-17T06:09:29;6.38;;;4.80;;
17955;SDS011;27666;51.498;11.966;2022-10-17T06:12:16;8.30;;;4.70;;
17955;SDS011;27666;51.498;11.966;2022-10-17T06:15:02;6.45;;;4.68;;
17955;SDS011;27666;51.498;11.966;2022-10-17T06:17:51;6.20;;;4.80;;
17955;SDS011;27666;51.498;11.966;2022-10-17T06:20:37;7.70;;;4.53;;
17955;SDS011;27666;51.498;11.966;2022-10-17T06:23:30;5.10;;;4.13;;
17955;SDS011;27666;51.498;11.966;2022-10-17T06:26:16;6.18;;;3.83;;
17955;SDS011;27666;51.498;11.966;2022-10-17T06:29:03;8.75;;;4.50;;
17955;SDS011;27666;51.498;11.966;2022-10-17T06:31:49;13.45;;;4.72;;
17955;SDS011;27666;51.498;11.966;2022-10-17T06:34:37;6.38;;;4.18;;
17955;SDS011;27666;51.498;11.966;2022-10-17T06:37:24;5.45;;;4.15;;
17955;SDS011;27666;51.498;11.966;2022-10-17T06:40:13;8.55;;;4.00;;
17955;SDS011;27666;51.498;11.966;2022-10-17T06:43:01;12.70;;;4.55;;
17955;SDS011;27666;51.498;11.966;2022-10-17T06:45:47;10.93;;;4.40;;
17955;SDS011;27666;51.498;11.966;2022-10-17T06:48:34;8.00;;;4.13;;
17955;SDS011;27666;51.498;11.966;2022-10-17T06:51:21;12.30;;;4.30;;
17955;SDS011;27666;51.498;11.966;2022-10-17T06:54:08;7.13;;;4.68;;
17955;SDS011;27666;51.498;11.966;2022-10-17T06:56:54;10.93;;;5.57;;
17955;SDS011;27666;51.498;11.966;2022-10-17T06:59:41;12.73;;;7.13;;
17955;SDS011;27666;51.498;11.966;2022-10-17T07:02:27;11.23;;;6.82;;
17955;SDS011;27666;51.498;11.966;2022-10-17T07:05:14;9.95;;;6.25;;
17955;SDS011;27666;51.498;11.966;2022-10-17T07:08:04;7.22;;;5.05;;
17955;SDS011;27666;51.498;11.966;2022-10-17T07:10:51;10.60;;;4.88;;
17955;SDS011;27666;51.498;11.966;2022-10-17T07:13:38;6.22;;;4.10;;
17955;SDS011;27666;51.498;11.966;2022-10-17T07:16:25;6.47;;;4.03;;
17955;SDS011;27666;51.498;11.966;2022-10-17T07:19:12;7.78;;;4.10;;
17955;SDS011;27666;51.498;11.966;2022-10-17T07:21:58;11.25;;;3.83;;
17955;SDS011;27666;51.498;11.966;2022-10-17T07:24:46;9.02;;;3.55;;
17955;SDS011;27666;51.498;11.966;2022-10-17T07:27:34;9.95;;;4.30;;
17955;SDS011;27666;51.498;11.966;2022-10-17T07:30:20;5.00;;;3.95;;
17955;SDS011;27666;51.498;11.966;2022-10-17T07:33:07;4.85;;;3.60;;
17955;SDS011;27666;51.498;11.966;2022-10-17T07:35:53;10.43;;;3.90;;
17955;SDS011;27666;51.498;11.966;2022-10-17T07:38:42;4.70;;;3.30;;
17955;SDS011;27666;51.498;11.966;2022-10-17T07:41:30;6.55;;;4.07;;
17955;SDS011;27666;51.498;11.966;2022-10-17T07:44:17;6.38;;;3.63;;
17955;SDS011;27666;51.498;11.966;2022-10-17T07:47:04;4.63;;;3.50;;
17955;SDS011;27666;51.498;11.966;2022-10-17T07:49:51;6.18;;;3.83;;
17955;SDS011;27666;51.498;11.966;2022-10-17T07:52:37;11.75;;;4.22;;
17955;SDS011;27666;51.498;11.966;2022-10-17T07:55:26;10.45;;;4.50;;
17955;SDS011;27666;51.498;11.966;2022-10-17T07:58:14;6.18;;;4.03;;
17955;SDS011;27666;51.498;11.966;2022-10-17T08:01:01;8.65;;;4.63;;
17955;SDS011;27666;51.498;11.966;2022-10-17T08:03:50;7.72;;;3.70;;
17955;SDS011;27666;51.498;11.966;2022-10-17T08:06:36;5.38;;;3.78;;
17955;SDS011;27666;51.498;11.966;2022-10-17T08:09:22;4.75;;;3.72;;
17955;SDS011;27666;51.498;11.966;2022-10-17T08:12:09;6.03;;;4.00;;
17955;SDS011;27666;51.498;11.966;2022-10-17T08:14:57;9.63;;;3.97;;
17955;SDS011;27666;51.498;11.966;2022-10-17T08:17:43;10.75;;;4.53;;
17955;SDS011;27666;51.498;11.966;2022-10-17T08:20:30;10.23;;;4.40;;
17955;SDS011;27666;51.498;11.966;2022-10-17T08:23:17;12.10;;;5.35;;
17955;SDS011;27666;51.498;11.966;2022-10-17T08:26:03;6.80;;;3.72;;
17955;SDS011;27666;51.498;11.966;2022-10-17T08:28:53;6.28;;;3.67;;
17955;SDS011;27666;51.498;11.966;2022-10-17T08:31:41;5.78;;;3.58;;
17955;SDS011;27666;51.498;11.966;2022-10-17T08:34:32;5.30;;;3.20;;
17955;SDS011;27666;51.498;11.966;2022-10-17T08:37:18;4.70;;;3.25;;
17955;SDS011;27666;51.498;11.966;2022-10-17T08:40:05;6.25;;;3.35;;
17955;SDS011;27666;51.498;11.966;2022-10-17T08:42:58;4.00;;;3.35;;
17955;SDS011;27666;51.498;11.966;2022-10-17T08:45:56;12.45;;;4.00;;
17955;SDS011;27666;51.498;11.966;2022-10-17T08:48:48;8.10;;;3.90;;
17955;SDS011;27666;51.498;11.966;2022-10-17T08:51:37;7.03;;;3.13;;
17955;SDS011;27666;51.498;11.966;2022-10-17T08:54:35;3.85;;;3.13;;
17955;SDS011;27666;51.498;11.966;2022-10-17T08:57:26;5.07;;;3.53;;
17955;SDS011;27666;51.498;11.966;2022-10-17T09:00:14;5.35;;;2.90;;
17955;SDS011;27666;51.498;11.966;2022-10-17T09:03:07;5.55;;;3.50;;
17955;SDS011;27666;51.498;11.966;2022-10-17T09:06:14;3.08;;;2.78;;
17955;SDS011;27666;51.498;11.966;2022-10-17T09:09:12;3.90;;;3.05;;
17955;SDS011;27666;51.498;11.966;2022-10-17T09:12:12;3.40;;;3.00;;
17955;SDS011;27666;51.498;11.966;2022-10-17T09:15:08;3.83;;;2.97;;
17955;SDS011;27666;51.498;11.966;2022-10-17T09:18:08;10.38;;;3.70;;
17955;SDS011;27666;51.498;11.966;2022-10-17T09:21:01;5.88;;;3.00;;
17955;SDS011;27666;51.498;11.966;2022-10-17T09:23:58;3.78;;;2.60;;
17955;SDS011;27666;51.498;11.966;2022-10-17T09:26:59;4.38;;;3.22;;
17955;SDS011;27666;51.498;11.966;2022-10-17T09:29:45;3.80;;;2.90;;
17955;SDS011;27666;51.498;11.966;2022-10-17T09:32:35;5.25;;;2.65;;
17955;SDS011;27666;51.498;11.966;2022-10-17T09:35:22;4.38;;;3.00;;
17955;SDS011;27666;51.498;11.966;2022-10-17T09:38:12;8.00;;;3.20;;
17955;SDS011;27666;51.498;11.966;2022-10-17T09:41:02;4.68;;;3.60;;
17955;SDS011;27666;51.498;11.966;2022-10-17T09:44:14;6.57;;;3.42;;
17955;SDS011;27666;51.498;11.966;2022-10-17T09:47:16;8.13;;;2.53;;
17955;SDS011;27666;51.498;11.966;2022-10-17T09:50:07;3.97;;;2.80;;
17955;SDS011;27666;51.498;11.966;2022-10-17T09:53:00;6.95;;;3.30;;
17955;SDS011;27666;51.498;11.966;2022-10-17T09:55:53;6.72;;;2.78;;
17955;SDS011;27666;51.498;11.966;2022-10-17T09:58:44;6.65;;;2.88;;
17955;SDS011;27666;51.498;11.966;2022-10-17T10:01:32;6.65;;;3.75;;
17955;SDS011;27666;51.498;11.966;2022-10-17T10:04:19;7.55;;;3.20;;
17955;SDS011;27666;51.498;11.966;2022-10-17T10:07:08;5.80;;;3.33;;
17955;SDS011;27666;51.498;11.966;2022-10-17T10:09:57;5.25;;;3.25;;
17955;SDS011;27666;51.498;11.966;2022-10-17T10:12:46;3.47;;;2.90;;
17955;SDS011;27666;51.498;11.966;2022-10-17T10:15:49;6.18;;;2.83;;
17955;SDS011;27666;51.498;11.966;2022-10-17T10:18:36;13.85;;;3.22;;
17955;SDS011;27666;51.498;11.966;2022-10-17T10:21:23;6.53;;;3.30;;
17955;SDS011;27666;51.498;11.966;2022-10-17T10:24:11;6.45;;;3.03;;
17955;SDS011;27666;51.498;11.966;2022-10-17T10:26:59;3.92;;;3.00;;
17955;SDS011;27666;51.498;11.966;2022-10-17T10:29:49;4.80;;;3.10;;
17955;SDS011;27666;51.498;11.966;2022-10-17T10:32:38;3.75;;;2.88;;
17955;SDS011;27666;51.498;11.966;2022-10-17T10:35:27;7.43;;;2.65;;
17955;SDS011;27666;51.498;11.966;2022-10-17T10:38:16;5.47;;;2.78;;
17955;SDS011;27666;51.498;11.966;2022-10-17T10:41:06;9.85;;;2.95;;
17955;SDS011;27666;51.498;11.966;2022-10-17T10:43:54;3.97;;;2.85;;
17955;SDS011;27666;51.498;11.966;2022-10-17T10:46:40;6.85;;;3.80;;
17955;SDS011;27666;51.498;11.966;2022-10-17T10:49:29;4.78;;;2.80;;
17955;SDS011;27666;51.498;11.966;2022-10-17T10:52:28;3.65;;;3.35;;
17955;SDS011;27666;51.498;11.966;2022-10-17T10:55:20;4.95;;;2.80;;
17955;SDS011;27666;51.498;11.966;2022-10-17T10:58:19;4.95;;;3.13;;
17955;SDS011;27666;51.498;11.966;2022-10-17T11:01:13;4.40;;;2.90;;
17955;SDS011;27666;51.498;11.966;2022-10-17T11:04:07;4.00;;;3.05;;
17955;SDS011;27666;51.498;11.966;2022-10-17T11:07:07;4.03;;;3.30;;
17955;SDS011;27666;51.498;11.966;2022-10-17T11:09:59;3.53;;;3.17;;
17955;SDS011;27666;51.498;11.966;2022-10-17T11:12:55;5.10;;;3.25;;
17955;SDS011;27666;51.498;11.966;2022-10-17T11:15:48;3.90;;;2.60;;
17955;SDS011;27666;51.498;11.966;2022-10-17T11:18:41;12.15;;;2.97;;
17955;SDS011;27666;51.498;11.966;2022-10-17T11:21:34;7.18;;;3.15;;
17955;SDS011;27666;51.498;11.966;2022-10-17T11:24:28;6.07;;;3.20;;
17955;SDS011;27666;51.498;11.966;2022-10-17T11:27:18;7.18;;;2.90;;
17955;SDS011;27666;51.498;11.966;2022-10-17T11:30:05;4.75;;;2.90;;
17955;SDS011;27666;51.498;11.966;2022-10-17T11:32:58;4.88;;;3.28;;
17955;SDS011;27666;51.498;11.966;2022-10-17T11:35:47;4.72;;;3.00;;
17955;SDS011;27666;51.498;11.966;2022-10-17T11:38:38;3.97;;;3.05;;
17955;SDS011;27666;51.498;11.966;2022-10-17T11:41:33;3.88;;;2.88;;
17955;SDS011;27666;51.498;11.966;2022-10-17T11:44:26;5.57;;;2.80;;
17955;SDS011;27666;51.498;11.966;2022-10-17T11:47:19;5.82;;;2.80;;
17955;SDS011;27666;51.498;11.966;2022-10-17T11:50:19;2.90;;;2.70;;
17955;SDS011;27666;51.498;11.966;2022-10-17T11:53:30;3.90;;;3.03;;
17955;SDS011;27666;51.498;11.966;2022-10-17T11:56:24;2.78;;;2.47;;
17955;SDS011;27666;51.498;11.966;2022-10-17T11:59:30;2.53;;;2.33;;
17955;SDS011;27666;51.498;11.966;2022-10-17T12:02:34;4.70;;;2.80;;
17955;SDS011;27666;51.498;11.966;2022-10-17T12:05:27;4.65;;;2.78;;
17955;SDS011;27666;51.498;11.966;2022-10-17T12:08:23;3.95;;;2.30;;
17955;SDS011;27666;51.498;11.966;2022-10-17T12:11:18;6.25;;;3.00;;
17955;SDS011;27666;51.498;11.966;2022-10-17T12:17:29;7.18;;;2.85;;
17955;SDS011;27666;51.498;11.966;2022-10-17T12:20:26;2.70;;;2.50;;
17955;SDS011;27666;51.498;11.966;2022-10-17T12:26:24;3.72;;;2.53;;
17955;SDS011;27666;51.498;11.966;2022-10-17T12:29:16;3.60;;;2.40;;
17955;SDS011;27666;51.498;11.966;2022-10-17T12:32:13;6.63;;;2.85;;
17955;SDS011;27666;51.498;11.966;2022-10-17T12:35:00;4.05;;;2.83;;
17955;SDS011;27666;51.498;11.966;2022-10-17T12:41:08;4.55;;;2.33;;
17955;SDS011;27666;51.498;11.966;2022-10-17T12:43:55;7.10;;;2.53;;
17955;SDS011;27666;51.498;11.966;2022-10-17T12:46:42;4.75;;;2.50;;
17955;SDS011;27666;51.498;11.966;2022-10-17T12:49:36;3.53;;;2.55;;
17955;SDS011;27666;51.498;11.966;2022-10-17T12:55:43;4.68;;;2.85;;
17955;SDS011;27666;51.498;11.966;2022-10-17T12:58:29;5.95;;;2.70;;
17955;SDS011;27666;51.498;11.966;2022-10-17T13:01:17;4.82;;;2.33;;
17955;SDS011;27666;51.498;11.966;2022-10-17T13:04:08;7.15;;;3.00;;
17955;SDS011;27666;51.498;11.966;2022-10-17T13:06:57;7.57;;;2.97;;
17955;SDS011;27666;51.498;11.966;2022-10-17T13:09:45;6.20;;;2.80;;
17955;SDS011;27666;51.498;11.966;2022-10-17T13:12:34;3.92;;;2.60;;
17955;SDS011;27666;51.498;11.966;2022-10-17T13:15:24;6.95;;;2.40;;
17955;SDS011;27666;51.498;11.966;2022-10-17T13:18:15;5.70;;;2.80;;
17955;SDS011;27666;51.498;11.966;2022-10-17T13:21:06;4.35;;;2.83;;
17955;SDS011;27666;51.498;11.966;2022-10-17T13:24:01;13.90;;;3.28;;
17955;SDS011;27666;51.498;11.966;2022-10-17T13:27:05;4.55;;;2.80;;
17955;SDS011;27666;51.498;11.966;2022-10-17T13:33:27;4.60;;;2.63;;
17955;SDS011;27666;51.498;11.966;2022-10-17T13:36:17;4.53;;;2.70;;
17955;SDS011;27666;51.498;11.966;2022-10-17T13:39:06;3.47;;;2.40;;
17955;SDS011;27666;51.498;11.966;2022-10-17T13:41:58;6.18;;;2.75;;
17955;SDS011;27666;51.498;11.966;2022-10-17T13:44:45;6.28;;;2.67;;
17955;SDS011;27666;51.498;11.966;2022-10-17T13:47:34;4.85;;;2.50;;
17955;SDS011;27666;51.498;11.966;2022-10-17T13:50:24;3.88;;;2.35;;
17955;SDS011;27666;51.498;11.966;2022-10-17T13:53:29;4.75;;;2.67;;
17955;SDS011;27666;51.498;11.966;2022-10-17T13:56:19;7.00;;;3.47;;
17955;SDS011;27666;51.498;11.966;2022-10-17T13:59:18;5.47;;;2.58;;
17955;SDS011;27666;51.498;11.966;2022-10-17T14:02:12;11.15;;;3.72;;
17955;SDS011;27666;51.498;11.966;2022-10-17T14:05:10;4.20;;;3.22;;
17955;SDS011;27666;51.498;11.966;2022-10-17T14:08:03;4.30;;;2.78;;
17955;SDS011;27666;51.498;11.966;2022-10-17T14:10:57;5.32;;;2.92;;
17955;SDS011;27666;51.498;11.966;2022-10-17T14:13:48;9.95;;;3.10;;
17955;SDS011;27666;51.498;11.966;2022-10-17T14:16:37;5.68;;;3.10;;
17955;SDS011;27666;51.498;11.966;2022-10-17T14:19:25;6.55;;;3.45;;
17955;SDS011;27666;51.498;11.966;2022-10-17T14:22:15;10.48;;;3.05;;
17955;SDS011;27666;51.498;11.966;2022-10-17T14:25:03;3.85;;;2.70;;
17955;SDS011;27666;51.498;11.966;2022-10-17T14:27:54;4.00;;;2.83;;
17955;SDS011;27666;51.498;11.966;2022-10-17T14:30:48;6.80;;;3.35;;
17955;SDS011;27666;51.498;11.966;2022-10-17T14:33:42;3.42;;;2.85;;
17955;SDS011;27666;51.498;11.966;2022-10-17T14:36:36;4.53;;;2.60;;
17955;SDS011;27666;51.498;11.966;2022-10-17T14:39:26;5.80;;;2.67;;
17955;SDS011;27666;51.498;11.966;2022-10-17T14:42:17;4.75;;;2.97;;
17955;SDS011;27666;51.498;11.966;2022-10-17T14:45:06;4.47;;;2.72;;
17955;SDS011;27666;51.498;11.966;2022-10-17T14:48:01;4.05;;;2.80;;
17955;SDS011;27666;51.498;11.966;2022-10-17T14:51:06;4.15;;;2.90;;
17955;SDS011;27666;51.498;11.966;2022-10-17T14:54:00;4.03;;;2.90;;
17955;SDS011;27666;51.498;11.966;2022-10-17T14:56:50;5.63;;;2.78;;
17955;SDS011;27666;51.498;11.966;2022-10-17T14:59:37;8.98;;;3.13;;
17955;SDS011;27666;51.498;11.966;2022-10-17T15:02:38;6.88;;;2.72;;
17955;SDS011;27666;51.498;11.966;2022-10-17T15:05:26;5.88;;;3.20;;
17955;SDS011;27666;51.498;11.966;2022-10-17T15:08:13;5.38;;;3.00;;
17955;SDS011;27666;51.498;11.966;2022-10-17T15:11:01;7.13;;;2.78;;
17955;SDS011;27666;51.498;11.966;2022-10-17T15:13:47;5.25;;;3.17;;
17955;SDS011;27666;51.498;11.966;2022-10-17T15:16:34;5.72;;;2.95;;
17955;SDS011;27666;51.498;11.966;2022-10-17T15:19:23;6.30;;;3.08;;
17955;SDS011;27666;51.498;11.966;2022-10-17T15:22:11;4.00;;;2.83;;
17955;SDS011;27666;51.498;11.966;2022-10-17T15:24:58;5.78;;;2.97;;
17955;SDS011;27666;51.498;11.966;2022-10-17T15:27:44;4.47;;;2.83;;
17955;SDS011;27666;51.498;11.966;2022-10-17T15:30:33;8.38;;;3.50;;
17955;SDS011;27666;51.498;11.966;2022-10-17T15:33:21;7.65;;;3.50;;
17955;SDS011;27666;51.498;11.966;2022-10-17T15:36:21;11.65;;;3.25;;
17955;SDS011;27666;51.498;11.966;2022-10-17T15:39:10;6.63;;;2.95;;
17955;SDS011;27666;51.498;11.966;2022-10-17T15:41:57;3.35;;;2.80;;
17955;SDS011;27666;51.498;11.966;2022-10-17T15:44:43;12.55;;;3.25;;
17955;SDS011;27666;51.498;11.966;2022-10-17T15:47:33;9.52;;;3.00;;
17955;SDS011;27666;51.498;11.966;2022-10-17T15:50:21;8.18;;;3.33;;
17955;SDS011;27666;51.498;11.966;2022-10-17T15:53:10;4.90;;;3.10;;
17955;SDS011;27666;51.498;11.966;2022-10-17T15:55:58;4.22;;;3.13;;
17955;SDS011;27666;51.498;11.966;2022-10-17T15:58:45;5.40;;;3.00;;
17955;SDS011;27666;51.498;11.966;2022-10-17T16:01:31;6.22;;;3.30;;
17955;SDS011;27666;51.498;11.966;2022-10-17T16:04:19;4.10;;;2.83;;
17955;SDS011;27666;51.498;11.966;2022-10-17T16:07:07;6.13;;;3.15;;
17955;SDS011;27666;51.498;11.966;2022-10-17T16:09:54;5.82;;;3.25;;
17955;SDS011;27666;51.498;11.966;2022-10-17T16:12:42;4.93;;;2.88;;
17955;SDS011;27666;51.498;11.966;2022-10-17T16:15:30;6.55;;;3.60;;
17955;SDS011;27666;51.498;11.966;2022-10-17T16:18:16;7.18;;;3.42;;
17955;SDS011;27666;51.498;11.966;2022-10-17T16:21:04;5.95;;;3.55;;
17955;SDS011;27666;51.498;11.966;2022-10-17T16:23:54;4.82;;;3.20;;
17955;SDS011;27666;51.498;11.966;2022-10-17T16:26:41;4.00;;;3.10;;
17955;SDS011;27666;51.498;11.966;2022-10-17T16:29:28;3.42;;;3.13;;
17955;SDS011;27666;51.498;11.966;2022-10-17T16:32:15;4.45;;;3.55;;
17955;SDS011;27666;51.498;11.966;2022-10-17T16:35:01;6.60;;;3.50;;
17955;SDS011;27666;51.498;11.966;2022-10-17T16:37:48;4.80;;;3.33;;
17955;SDS011;27666;51.498;11.966;2022-10-17T16:40:35;7.90;;;4.07;;
17955;SDS011;27666;51.498;11.966;2022-10-17T16:43:23;4.22;;;3.53;;
17955;SDS011;27666;51.498;11.966;2022-10-17T16:46:11;5.57;;;3.42;;
17955;SDS011;27666;51.498;11.966;2022-10-17T16:48:57;8.32;;;3.83;;
17955;SDS011;27666;51.498;11.966;2022-10-17T16:51:44;4.25;;;3.65;;
17955;SDS011;27666;51.498;11.966;2022-10-17T16:54:30;8.73;;;4.60;;
17955;SDS011;27666;51.498;11.966;2022-10-17T16:57:18;11.68;;;5.28;;
17955;SDS011;27666;51.498;11.966;2022-10-17T17:00:05;11.50;;;5.20;;
17955;SDS011;27666;51.498;11.966;2022-10-17T17:02:57;8.93;;;5.45;;
17955;SDS011;27666;51.498;11.966;2022-10-17T17:05:48;13.73;;;6.15;;
17955;SDS011;27666;51.498;11.966;2022-10-17T17:08:35;12.32;;;7.22;;
17955;SDS011;27666;51.498;11.966;2022-10-17T17:11:23;12.13;;;5.25;;